createdAt,value
2017-08-31T00:00:27.793Z,36.47
2017-08-31T00:05:29.798Z,33.87
2017-08-31T00:10:32.030Z,35.40
2017-08-31T00:15:34.019Z,34.60
2017-08-31T00:20:36.604Z,35.37
2017-08-31T00:25:39.025Z,38.90
2017-08-31T00:30:40.982Z,40.17
2017-08-31T00:35:43.430Z,38.73
2017-08-31T00:40:45.424Z,37.43
2017-08-31T00:45:47.488Z,35.47
2017-08-31T00:50:49.608Z,31.87
2017-08-31T00:55:51.767Z,30.17
2017-08-31T01:00:53.803Z,27.63
2017-08-31T01:05:56.474Z,20.87
2017-08-31T01:10:59.027Z,14.97
2017-08-31T01:16:01.555Z,16.60
2017-08-31T01:21:03.682Z,14.43
2017-08-31T01:26:06.539Z,10.30
2017-08-31T01:31:08.674Z,10.03
2017-08-31T01:36:11.554Z,10.87
2017-08-31T01:41:14.349Z,10.00
2017-08-31T01:46:17.184Z,10.30
2017-08-31T01:51:19.331Z,10.43
2017-08-31T01:56:22.031Z,11.37
2017-08-31T02:01:24.424Z,12.33
2017-08-31T02:06:26.922Z,12.07
2017-08-31T02:11:29.272Z,11.90
2017-08-31T02:16:31.225Z,13.50
2017-08-31T02:21:33.542Z,13.87
2017-08-31T02:26:36.012Z,14.30
2017-08-31T02:31:38.751Z,14.67
2017-08-31T02:36:41.436Z,13.70
2017-08-31T02:41:44.109Z,17.00
2017-08-31T02:46:46.140Z,17.77
2017-08-31T02:51:48.955Z,19.23
2017-08-31T02:56:51.562Z,19.57
2017-08-31T03:01:54.073Z,22.40
2017-08-31T03:06:56.047Z,23.17
2017-08-31T03:11:58.527Z,25.00
2017-08-31T03:17:00.877Z,23.57
2017-08-31T03:22:03.627Z,21.40
2017-08-31T03:27:05.983Z,23.20
2017-08-31T03:32:08.538Z,25.27
2017-08-31T03:37:11.186Z,25.33
2017-08-31T03:42:13.898Z,23.67
2017-08-31T03:47:16.821Z,27.40
2017-08-31T03:52:19.654Z,26.57
2017-08-31T03:57:22.467Z,25.87
2017-08-31T04:02:26.391Z,26.50
2017-08-31T04:07:28.347Z,28.25
2017-08-31T04:12:30.934Z,27.07
2017-08-31T04:17:33.630Z,28.10
2017-08-31T04:22:35.699Z,27.33
2017-08-31T04:27:38.292Z,27.20
2017-08-31T04:32:40.239Z,27.20
2017-08-31T04:37:42.571Z,27.70
2017-08-31T04:42:45.182Z,27.90
2017-08-31T04:47:47.820Z,27.90
2017-08-31T04:52:50.429Z,26.70
2017-08-31T04:57:53.255Z,27.00
2017-08-31T05:02:56.296Z,28.70
2017-08-31T05:07:59.072Z,24.07
2017-08-31T05:13:01.388Z,21.47
2017-08-31T05:18:08.181Z,19.97
2017-08-31T05:23:11.098Z,11.70
2017-08-31T05:28:13.075Z,11.00
2017-08-31T05:33:15.905Z,9.43
2017-08-31T05:38:19.093Z,8.00
2017-08-31T05:43:21.848Z,8.00
2017-08-31T05:48:31.829Z,8.80
2017-08-31T05:53:34.633Z,9.00
2017-08-31T05:58:37.053Z,9.13
2017-08-31T06:03:39.530Z,9.77
2017-08-31T06:08:43.941Z,9.40
2017-08-31T06:13:46.750Z,10.37
2017-08-31T06:18:49.385Z,11.23
2017-08-31T06:23:52.128Z,10.43
2017-08-31T06:28:55.651Z,9.20
2017-08-31T06:33:57.907Z,8.97
2017-08-31T06:39:00.541Z,8.80
2017-08-31T06:44:02.836Z,6.60
2017-08-31T06:49:05.306Z,6.47
2017-08-31T06:54:07.303Z,6.33
2017-08-31T06:59:09.274Z,5.47
2017-08-31T07:04:11.400Z,5.57
2017-08-31T07:09:13.426Z,5.50
2017-08-31T07:14:15.378Z,5.40
2017-08-31T07:19:18.416Z,4.77
2017-08-31T07:24:22.104Z,4.87
2017-08-31T07:29:24.137Z,5.73
2017-08-31T07:34:28.368Z,5.27
2017-08-31T07:39:30.304Z,4.30
2017-08-31T07:44:32.255Z,4.17
2017-08-31T07:49:34.166Z,4.27
2017-08-31T07:54:36.114Z,4.13
2017-08-31T07:59:39.338Z,3.67
2017-08-31T08:04:41.281Z,3.23
2017-08-31T08:09:43.218Z,3.43
2017-08-31T08:14:45.875Z,3.90
2017-08-31T08:19:47.845Z,3.30
2017-08-31T08:24:49.879Z,2.50
2017-08-31T08:29:51.919Z,1.77
2017-08-31T08:34:53.895Z,1.90
2017-08-31T08:39:56.083Z,2.30
2017-08-31T08:44:58.757Z,2.43
2017-08-31T08:50:02.505Z,3.23
2017-08-31T08:55:04.563Z,2.80
2017-08-31T09:00:06.596Z,3.90
2017-08-31T09:05:08.610Z,3.57
2017-08-31T09:10:10.623Z,3.67
2017-08-31T09:15:13.164Z,4.10
2017-08-31T09:20:15.804Z,3.47
2017-08-31T09:25:17.823Z,3.60
2017-08-31T09:30:20.026Z,3.33
2017-08-31T09:35:22.284Z,3.30
2017-08-31T09:40:24.718Z,2.80
2017-08-31T09:45:27.049Z,3.27
2017-08-31T09:50:29.309Z,3.30
2017-08-31T09:55:31.838Z,2.90
2017-08-31T10:00:34.192Z,3.87
2017-08-31T10:05:36.357Z,3.03
2017-08-31T10:10:39.016Z,3.00
2017-08-31T10:15:41.323Z,2.80
2017-08-31T10:20:43.402Z,3.40
2017-08-31T10:25:45.698Z,3.40
2017-08-31T10:30:47.742Z,17.23
2017-08-31T10:35:49.916Z,27.93
2017-08-31T10:40:51.937Z,5.60
2017-08-31T10:45:53.936Z,6.10
2017-08-31T10:50:55.963Z,28.03
2017-08-31T10:55:57.980Z,13.20
2017-08-31T11:00:59.979Z,27.80
2017-08-31T11:06:01.979Z,2.40
2017-08-31T11:11:03.933Z,2.27
2017-08-31T11:16:05.988Z,1.80
2017-08-31T11:21:07.958Z,1.53
2017-08-31T11:26:09.915Z,1.70
2017-08-31T11:31:12.206Z,1.63
2017-08-31T11:36:15.081Z,1.67
2017-08-31T11:41:17.400Z,1.20
2017-08-31T11:46:19.329Z,0.90
2017-08-31T11:51:21.271Z,1.00
2017-08-31T11:56:23.228Z,1.50
2017-08-31T12:01:25.178Z,1.90
2017-08-31T12:06:27.109Z,6.80
2017-08-31T12:11:29.109Z,1.80
2017-08-31T12:16:31.039Z,1.20
2017-08-31T12:21:32.967Z,1.93
2017-08-31T12:26:35.022Z,1.60
2017-08-31T12:31:36.951Z,0.80
2017-08-31T12:36:38.858Z,0.70
2017-08-31T12:41:40.769Z,1.10
2017-08-31T12:46:42.692Z,0.80
2017-08-31T12:51:44.763Z,1.00
2017-08-31T12:56:47.133Z,0.90
2017-08-31T13:01:49.429Z,0.70
2017-08-31T13:06:51.603Z,0.70
2017-08-31T13:11:53.765Z,0.60
2017-08-31T13:16:55.752Z,0.70
2017-08-31T13:21:57.737Z,0.83
2017-08-31T13:26:59.648Z,0.90
2017-08-31T13:32:01.914Z,0.90
2017-08-31T13:37:03.886Z,1.10
2017-08-31T13:42:05.895Z,0.90
2017-08-31T13:47:08.104Z,1.00
2017-08-31T13:52:10.376Z,0.70
2017-08-31T13:57:12.657Z,0.80
2017-08-31T14:02:14.578Z,0.70
2017-08-31T14:07:16.529Z,0.80
2017-08-31T14:12:18.754Z,1.20
2017-08-31T14:17:20.946Z,2.00
2017-08-31T14:22:23.276Z,1.50
2017-08-31T14:27:25.530Z,1.40
2017-08-31T14:32:27.689Z,1.27
2017-08-31T14:37:30.135Z,0.80
2017-08-31T14:42:32.091Z,0.80
2017-08-31T14:47:34.428Z,0.90
2017-08-31T14:52:36.691Z,1.10
2017-08-31T14:57:38.915Z,1.00
2017-08-31T15:02:41.099Z,1.00
2017-08-31T15:07:44.179Z,1.20
2017-08-31T15:12:47.096Z,1.03
2017-08-31T15:17:49.486Z,1.10
2017-08-31T15:22:51.895Z,1.10
2017-08-31T15:27:54.742Z,1.30
2017-08-31T15:32:56.959Z,1.10
2017-08-31T15:38:01.977Z,1.30
2017-08-31T15:43:04.652Z,1.40
2017-08-31T15:48:06.916Z,1.00
2017-08-31T15:53:09.174Z,1.50
2017-08-31T15:58:11.499Z,1.70
2017-08-31T16:03:13.713Z,1.60
2017-08-31T16:08:15.813Z,1.60
2017-08-31T16:13:18.146Z,1.40
2017-08-31T16:18:20.335Z,1.43
2017-08-31T16:23:22.302Z,1.40
2017-08-31T16:28:24.225Z,1.30
2017-08-31T16:33:26.140Z,1.63
2017-08-31T16:38:28.509Z,0.90
2017-08-31T16:43:36.031Z,1.40
2017-08-31T16:48:47.390Z,1.50
2017-08-31T16:53:58.796Z,1.40
2017-08-31T16:59:10.618Z,1.90
2017-08-31T17:04:19.678Z,1.77
2017-08-31T17:09:29.104Z,2.00
2017-08-31T17:14:39.282Z,1.80
2017-08-31T17:19:49.549Z,2.00
2017-08-31T17:24:56.574Z,2.57
2017-08-31T17:35:17.484Z,1.70
2017-08-31T17:40:34.464Z,1.63
2017-08-31T17:45:49.331Z,2.10
2017-08-31T17:51:04.594Z,1.87
2017-08-31T18:01:38.161Z,1.90
2017-08-31T18:06:50.796Z,1.73
2017-08-31T18:12:16.099Z,1.30
2017-08-31T18:17:26.107Z,1.27
2017-08-31T18:22:40.740Z,2.00
2017-08-31T18:27:49.698Z,2.07
2017-08-31T18:32:58.410Z,1.50
2017-08-31T18:38:09.576Z,2.00
2017-08-31T18:43:21.744Z,1.80
2017-08-31T18:48:35.428Z,1.73
2017-08-31T18:53:48.283Z,2.00
2017-08-31T18:59:03.362Z,1.90
2017-08-31T19:04:15.097Z,2.27
2017-08-31T19:09:25.603Z,1.70
2017-08-31T19:14:39.246Z,2.10
2017-08-31T19:19:47.375Z,1.87
2017-08-31T19:24:56.459Z,2.00
2017-08-31T19:30:11.300Z,1.97
2017-08-31T19:35:17.906Z,1.87
2017-08-31T19:40:22.733Z,2.03
2017-08-31T19:45:38.564Z,2.10
2017-08-31T19:50:44.911Z,2.30
2017-08-31T19:55:57.316Z,2.47
2017-08-31T20:01:08.748Z,2.20
2017-08-31T20:06:14.637Z,2.57
2017-08-31T20:11:20.752Z,3.00
2017-08-31T20:16:35.524Z,2.60
2017-08-31T20:21:44.851Z,2.40
2017-08-31T20:32:12.510Z,2.77
2017-08-31T20:37:28.300Z,3.50
2017-08-31T20:42:35.956Z,3.53
2017-08-31T20:47:48.990Z,3.50
2017-08-31T20:52:54.215Z,3.30
2017-08-31T20:58:01.659Z,4.17
2017-08-31T21:03:09.601Z,2.90
2017-08-31T21:08:21.803Z,3.23
2017-08-31T21:13:36.655Z,3.37
2017-08-31T21:18:43.490Z,4.53
2017-08-31T21:23:51.324Z,3.63
2017-08-31T21:29:08.365Z,3.67
2017-08-31T21:34:23.392Z,4.43
2017-08-31T21:39:30.996Z,3.20
2017-08-31T21:49:56.104Z,4.17
2017-08-31T21:55:02.467Z,3.47
2017-08-31T22:00:10.705Z,3.90
2017-08-31T22:05:16.715Z,4.00
2017-08-31T22:15:54.045Z,3.87
2017-08-31T22:21:05.738Z,4.50
2017-08-31T22:31:35.386Z,4.73
2017-08-31T22:36:43.389Z,3.97
2017-08-31T22:41:58.029Z,4.03
2017-08-31T22:47:07.622Z,4.60
2017-08-31T22:57:46.844Z,4.80
2017-08-31T23:03:00.587Z,4.00
2017-08-31T23:08:08.479Z,5.27
2017-08-31T23:13:20.075Z,4.90
2017-08-31T23:18:34.894Z,4.50
2017-08-31T23:23:46.454Z,4.80
2017-08-31T23:28:53.631Z,4.00
2017-08-31T23:34:00.996Z,5.10
2017-08-31T23:39:08.269Z,4.83
2017-08-31T23:44:15.295Z,3.80
2017-08-31T23:49:23.630Z,5.57
2017-08-31T23:54:31.433Z,6.60
2017-08-31T23:59:39.076Z,4.73
